createdAt,value
2022-10-08T00:01:43.530Z,6.33
2022-10-08T00:04:12.266Z,6.80
2022-10-08T00:06:40.649Z,7.10
2022-10-08T00:09:08.838Z,6.97
2022-10-08T00:11:37.943Z,7.03
2022-10-08T00:14:07.665Z,7.20
2022-10-08T00:16:36.700Z,6.47
2022-10-08T00:19:06.085Z,6.97
2022-10-08T00:21:35.574Z,6.80
2022-10-08T00:24:04.631Z,7.20
2022-10-08T00:26:34.032Z,7.90
2022-10-08T00:29:02.973Z,7.77
2022-10-08T00:31:33.592Z,6.87
2022-10-08T00:34:02.658Z,7.17
2022-10-08T00:36:32.187Z,8.17
2022-10-08T00:39:00.685Z,7.90
2022-10-08T00:41:29.771Z,7.90
2022-10-08T00:43:59.036Z,7.90
2022-10-08T00:46:29.126Z,7.97
2022-10-08T00:49:01.803Z,8.23
2022-10-08T00:51:30.031Z,7.63
2022-10-08T00:53:58.103Z,7.60
2022-10-08T00:56:26.326Z,7.33
2022-10-08T00:58:54.447Z,8.40
2022-10-08T01:01:23.104Z,8.90
2022-10-08T01:03:51.223Z,8.00
2022-10-08T01:06:28.943Z,8.53
2022-10-08T01:09:00.877Z,7.77
2022-10-08T01:11:38.180Z,8.63
2022-10-08T01:14:08.598Z,8.50
2022-10-08T01:16:40.512Z,9.07
2022-10-08T01:19:17.267Z,8.67
2022-10-08T01:21:48.946Z,8.53
2022-10-08T01:24:47.560Z,8.90
2022-10-08T01:27:22.640Z,9.30
2022-10-08T01:29:50.781Z,9.27
2022-10-08T01:32:20.490Z,8.87
2022-10-08T01:34:49.249Z,8.47
2022-10-08T01:37:19.841Z,8.53
2022-10-08T01:39:48.078Z,9.87
2022-10-08T01:42:16.446Z,7.83
2022-10-08T01:44:46.465Z,9.20
2022-10-08T01:47:16.764Z,9.10
2022-10-08T01:49:46.578Z,9.60
2022-10-08T01:52:18.851Z,9.30
2022-10-08T01:54:46.943Z,9.00
2022-10-08T01:57:15.016Z,8.60
2022-10-08T01:59:45.705Z,8.63
2022-10-08T02:02:17.063Z,8.47
2022-10-08T02:04:45.128Z,8.27
2022-10-08T02:07:15.747Z,8.47
2022-10-08T02:09:44.923Z,9.70
2022-10-08T02:12:12.995Z,8.50
2022-10-08T02:14:42.727Z,8.13
2022-10-08T02:17:21.269Z,7.93
2022-10-08T02:19:53.045Z,7.87
2022-10-08T02:22:23.146Z,8.07
2022-10-08T02:24:53.257Z,9.37
2022-10-08T02:27:25.851Z,9.43
2022-10-08T02:29:59.684Z,8.53
2022-10-08T02:32:32.567Z,8.20
2022-10-08T02:35:03.202Z,8.97
2022-10-08T02:37:34.394Z,9.70
2022-10-08T02:40:04.404Z,8.80
2022-10-08T02:42:32.682Z,9.50
2022-10-08T02:45:01.959Z,8.63
2022-10-08T02:47:32.605Z,10.00
2022-10-08T02:50:02.712Z,8.80
2022-10-08T02:52:35.371Z,9.23
2022-10-08T02:55:03.466Z,9.23
2022-10-08T02:57:33.589Z,9.37
2022-10-08T03:00:01.677Z,9.90
2022-10-08T03:02:36.923Z,9.80
2022-10-08T03:05:06.436Z,9.60
2022-10-08T03:07:35.678Z,8.70
2022-10-08T03:10:05.524Z,9.20
2022-10-08T03:12:33.615Z,8.97
2022-10-08T03:15:01.716Z,10.17
2022-10-08T03:17:33.099Z,10.33
2022-10-08T03:20:03.222Z,9.57
2022-10-08T03:22:31.505Z,9.50
2022-10-08T03:24:59.618Z,9.53
2022-10-08T03:27:27.692Z,10.10
2022-10-08T03:29:58.014Z,10.53
2022-10-08T03:32:26.126Z,9.57
2022-10-08T03:34:55.598Z,9.80
2022-10-08T03:37:23.741Z,10.60
2022-10-08T03:39:51.870Z,10.73
2022-10-08T03:42:20.130Z,11.63
2022-10-08T03:44:48.203Z,10.27
2022-10-08T03:47:16.237Z,10.53
2022-10-08T03:49:44.362Z,11.03
2022-10-08T03:52:13.821Z,11.67
2022-10-08T03:54:42.170Z,11.70
2022-10-08T03:57:10.226Z,11.13
2022-10-08T03:59:38.269Z,11.53
2022-10-08T04:02:06.606Z,10.90
2022-10-08T04:04:34.822Z,11.37
2022-10-08T04:07:02.915Z,12.70
2022-10-08T04:09:32.616Z,12.17
2022-10-08T04:12:00.695Z,12.27
2022-10-08T04:14:28.807Z,12.33
2022-10-08T04:16:56.885Z,13.43
2022-10-08T04:19:25.011Z,14.27
2022-10-08T04:21:53.101Z,14.13
2022-10-08T04:24:21.441Z,12.83
2022-10-08T04:26:50.982Z,14.20
2022-10-08T04:29:19.141Z,13.87
2022-10-08T04:31:47.179Z,14.37
2022-10-08T04:34:15.219Z,13.87
2022-10-08T04:36:43.261Z,14.03
2022-10-08T04:39:11.701Z,14.03
2022-10-08T04:41:39.764Z,15.13
2022-10-08T04:44:09.214Z,14.87
2022-10-08T04:46:37.288Z,14.17
2022-10-08T04:49:05.358Z,14.90
2022-10-08T04:51:33.710Z,14.27
2022-10-08T04:54:01.810Z,14.37
2022-10-08T04:56:30.916Z,14.50
2022-10-08T04:58:59.223Z,13.50
2022-10-08T05:01:29.035Z,14.40
2022-10-08T05:03:58.400Z,15.30
2022-10-08T05:06:28.231Z,13.67
2022-10-08T05:08:56.378Z,14.03
2022-10-08T05:11:24.921Z,14.17
2022-10-08T05:13:53.370Z,14.40
2022-10-08T05:16:21.754Z,13.47
2022-10-08T05:18:52.183Z,14.03
2022-10-08T05:21:21.181Z,13.70
2022-10-08T05:23:49.514Z,13.17
2022-10-08T05:26:18.681Z,12.67
2022-10-08T05:28:48.403Z,12.97
2022-10-08T05:31:16.730Z,13.83
2022-10-08T05:33:45.102Z,12.53
2022-10-08T05:36:16.932Z,12.33
2022-10-08T05:38:45.025Z,12.70
2022-10-08T05:41:14.041Z,12.57
2022-10-08T05:43:42.135Z,12.87
2022-10-08T05:46:10.706Z,11.97
2022-10-08T05:48:38.843Z,12.10
2022-10-08T05:51:07.793Z,11.50
2022-10-08T05:53:37.798Z,11.70
2022-10-08T05:56:06.905Z,12.20
2022-10-08T05:58:35.321Z,12.43
2022-10-08T06:01:04.406Z,13.10
2022-10-08T06:03:32.593Z,11.67
2022-10-08T06:06:02.908Z,12.83
2022-10-08T06:08:30.977Z,11.47
2022-10-08T06:11:00.498Z,13.13
2022-10-08T06:13:28.999Z,12.53
2022-10-08T06:15:57.379Z,12.67
2022-10-08T06:18:25.571Z,13.00
2022-10-08T06:20:53.683Z,12.17
2022-10-08T06:23:21.842Z,11.87
2022-10-08T06:25:49.890Z,11.83
2022-10-08T06:28:19.679Z,12.53
2022-10-08T06:30:47.759Z,10.93
2022-10-08T06:33:16.947Z,11.80
2022-10-08T06:35:45.022Z,10.90
2022-10-08T06:38:13.496Z,11.70
2022-10-08T06:40:41.833Z,12.20
2022-10-08T06:43:12.090Z,14.20
2022-10-08T06:45:41.639Z,14.00
2022-10-08T06:48:09.844Z,15.47
2022-10-08T06:50:38.117Z,14.47
2022-10-08T06:53:06.467Z,11.23
2022-10-08T06:55:34.619Z,12.03
2022-10-08T06:58:02.774Z,11.43
2022-10-08T07:00:30.887Z,11.60
2022-10-08T07:03:00.405Z,11.33
2022-10-08T07:05:28.494Z,10.40
2022-10-08T07:07:56.524Z,11.13
2022-10-08T07:10:27.546Z,10.93
2022-10-08T07:12:57.891Z,11.30
2022-10-08T07:15:25.987Z,9.13
2022-10-08T07:17:54.037Z,10.33
2022-10-08T07:20:23.547Z,9.57
2022-10-08T07:22:51.893Z,9.47
2022-10-08T07:25:19.966Z,8.73
2022-10-08T07:27:48.104Z,9.57
2022-10-08T07:30:16.215Z,7.77
2022-10-08T07:32:44.529Z,9.27
2022-10-08T07:35:13.036Z,8.40
2022-10-08T07:37:44.364Z,7.10
2022-10-08T07:40:12.574Z,7.90
2022-10-08T07:42:40.638Z,7.93
2022-10-08T07:45:09.715Z,7.93
2022-10-08T07:47:37.755Z,7.43
2022-10-08T07:50:06.717Z,7.47
2022-10-08T07:52:34.785Z,7.93
2022-10-08T07:55:04.348Z,6.97
2022-10-08T07:57:32.401Z,7.00
2022-10-08T08:00:00.490Z,6.67
2022-10-08T08:02:28.896Z,6.60
2022-10-08T08:04:57.042Z,6.97
2022-10-08T08:07:25.121Z,6.70
2022-10-08T08:09:53.253Z,6.37
2022-10-08T08:12:22.688Z,6.67
2022-10-08T08:14:50.741Z,6.47
2022-10-08T08:17:19.070Z,6.10
2022-10-08T08:19:47.109Z,6.93
2022-10-08T08:22:15.209Z,6.27
2022-10-08T08:24:43.245Z,6.43
2022-10-08T08:27:11.320Z,6.57
2022-10-08T08:29:41.234Z,7.10
2022-10-08T08:32:09.879Z,6.43
2022-10-08T08:34:38.710Z,6.70
2022-10-08T08:37:06.775Z,6.97
2022-10-08T08:39:34.843Z,6.93
2022-10-08T08:42:23.881Z,5.97
2022-10-08T08:44:57.614Z,6.63
2022-10-08T08:47:27.065Z,5.47
2022-10-08T08:49:56.521Z,6.00
2022-10-08T08:52:25.914Z,6.20
2022-10-08T08:54:54.780Z,5.77
2022-10-08T08:57:32.938Z,5.57
2022-10-08T09:00:05.199Z,5.43
2022-10-08T09:02:35.760Z,6.07
2022-10-08T09:05:06.012Z,6.40
2022-10-08T09:07:38.161Z,5.00
2022-10-08T09:10:09.526Z,4.97
2022-10-08T09:12:38.497Z,5.33
2022-10-08T09:15:15.292Z,5.30
2022-10-08T09:17:43.302Z,4.90
2022-10-08T09:20:14.274Z,4.70
2022-10-08T09:22:42.298Z,4.97
2022-10-08T09:25:14.366Z,4.70
2022-10-08T09:27:49.981Z,4.33
2022-10-08T09:30:40.529Z,5.00
2022-10-08T09:33:19.537Z,4.97
2022-10-08T09:35:48.253Z,3.90
2022-10-08T09:38:21.336Z,4.40
2022-10-08T09:41:01.170Z,4.47
2022-10-08T09:43:29.845Z,4.23
2022-10-08T09:45:59.309Z,3.77
2022-10-08T09:48:28.261Z,3.70
2022-10-08T09:50:58.817Z,3.83
2022-10-08T09:53:30.034Z,3.60
2022-10-08T09:55:59.825Z,2.93
2022-10-08T09:58:27.899Z,3.07
2022-10-08T10:01:03.905Z,2.87
2022-10-08T10:03:32.479Z,2.53
2022-10-08T10:06:00.998Z,2.93
2022-10-08T10:08:50.035Z,3.17
2022-10-08T10:11:22.125Z,3.20
2022-10-08T10:13:50.951Z,3.10
2022-10-08T10:16:22.956Z,3.00
2022-10-08T10:18:54.338Z,3.30
2022-10-08T10:21:25.953Z,3.00
2022-10-08T10:23:59.079Z,3.00
2022-10-08T10:26:28.681Z,3.30
2022-10-08T10:28:57.608Z,3.20
2022-10-08T10:31:28.936Z,3.40
2022-10-08T10:33:59.002Z,3.37
2022-10-08T10:36:28.234Z,2.80
2022-10-08T10:38:57.498Z,2.97
2022-10-08T10:41:28.504Z,3.03
2022-10-08T10:44:00.434Z,3.17
2022-10-08T10:46:33.170Z,2.83
2022-10-08T10:49:01.450Z,3.10
2022-10-08T10:51:53.495Z,3.00
2022-10-08T10:54:45.268Z,2.93
2022-10-08T10:57:27.945Z,2.80
2022-10-08T11:00:00.238Z,4.43
2022-10-08T11:02:32.253Z,3.47
2022-10-08T11:05:05.627Z,4.63
2022-10-08T11:08:06.421Z,4.43
2022-10-08T11:10:41.337Z,3.27
2022-10-08T11:13:17.938Z,3.37
2022-10-08T11:15:47.750Z,3.67
2022-10-08T11:18:21.915Z,3.50
2022-10-08T11:20:56.775Z,3.50
2022-10-08T11:23:34.336Z,2.63
2022-10-08T11:26:21.403Z,8.47
2022-10-08T11:28:54.769Z,4.13
2022-10-08T11:31:27.843Z,3.93
2022-10-08T11:33:57.322Z,3.00
2022-10-08T11:36:32.861Z,2.73
2022-10-08T11:39:04.849Z,2.40
2022-10-08T11:41:33.856Z,2.20
2022-10-08T11:44:02.642Z,2.80
2022-10-08T11:46:31.517Z,3.70
2022-10-08T11:49:01.764Z,4.03
2022-10-08T11:51:39.329Z,2.90
2022-10-08T11:54:18.902Z,3.30
2022-10-08T11:56:47.908Z,5.63
2022-10-08T11:59:36.703Z,3.23
2022-10-08T12:02:05.791Z,3.97
2022-10-08T12:04:36.392Z,5.53
2022-10-08T12:07:23.025Z,9.73
2022-10-08T12:10:22.435Z,3.60
2022-10-08T12:13:24.635Z,3.13
2022-10-08T12:15:57.259Z,3.90
2022-10-08T12:18:52.517Z,2.73
2022-10-08T12:21:51.078Z,2.00
2022-10-08T12:24:58.173Z,6.13
2022-10-08T12:27:41.296Z,3.33
2022-10-08T12:30:11.103Z,3.50
2022-10-08T12:32:55.884Z,4.10
2022-10-08T12:35:25.954Z,7.13
2022-10-08T12:38:04.818Z,8.10
2022-10-08T12:40:38.517Z,6.90
2022-10-08T12:43:18.194Z,2.80
2022-10-08T12:45:56.134Z,2.73
2022-10-08T12:48:33.883Z,1.87
2022-10-08T12:51:13.602Z,1.60
2022-10-08T12:53:46.022Z,2.13
2022-10-08T12:56:18.939Z,1.90
2022-10-08T12:58:47.446Z,1.90
2022-10-08T13:01:16.507Z,2.60
2022-10-08T13:03:44.686Z,2.10
2022-10-08T13:06:17.649Z,1.80
2022-10-08T13:08:49.990Z,2.03
2022-10-08T13:11:18.029Z,2.23
2022-10-08T13:13:49.116Z,2.33
2022-10-08T13:16:18.735Z,2.07
2022-10-08T13:18:48.264Z,2.10
2022-10-08T13:21:36.724Z,1.93
2022-10-08T13:24:22.124Z,2.10
2022-10-08T13:26:50.911Z,2.00
2022-10-08T13:29:30.109Z,2.03
2022-10-08T13:31:59.589Z,1.90
2022-10-08T13:34:29.411Z,2.03
2022-10-08T13:36:58.814Z,1.57
2022-10-08T13:39:29.884Z,1.73
2022-10-08T13:41:59.497Z,2.00
2022-10-08T13:44:27.637Z,1.83
2022-10-08T13:47:00.033Z,1.90
2022-10-08T13:49:29.613Z,2.00
2022-10-08T13:51:57.727Z,2.00
2022-10-08T13:54:26.450Z,2.00
2022-10-08T13:56:56.058Z,1.80
2022-10-08T13:59:29.608Z,2.10
2022-10-08T14:01:59.075Z,1.93
2022-10-08T14:04:27.233Z,1.80
2022-10-08T14:06:55.953Z,1.70
2022-10-08T14:09:25.174Z,1.87
2022-10-08T14:11:56.322Z,1.90
2022-10-08T14:14:26.218Z,2.30
2022-10-08T14:16:55.942Z,1.80
2022-10-08T14:19:24.010Z,2.67
2022-10-08T14:21:52.882Z,2.00
2022-10-08T14:24:30.396Z,2.13
2022-10-08T14:27:08.379Z,2.43
2022-10-08T14:29:40.426Z,1.90
2022-10-08T14:32:09.573Z,1.80
2022-10-08T14:34:37.882Z,2.10
2022-10-08T14:37:07.773Z,1.97
2022-10-08T14:39:36.368Z,3.03
2022-10-08T14:42:04.768Z,2.20
2022-10-08T14:44:34.744Z,1.83
2022-10-08T14:47:04.217Z,1.60
2022-10-08T14:49:32.329Z,1.90
2022-10-08T14:52:00.440Z,2.10
2022-10-08T14:54:29.702Z,3.07
2022-10-08T14:56:57.782Z,2.27
2022-10-08T14:59:26.070Z,2.50
2022-10-08T15:01:54.769Z,1.87
2022-10-08T15:04:24.320Z,1.47
2022-10-08T15:06:52.352Z,2.67
2022-10-08T15:09:20.786Z,3.03
2022-10-08T15:11:49.138Z,2.73
2022-10-08T15:14:17.280Z,2.80
2022-10-08T15:16:45.403Z,2.17
2022-10-08T15:19:13.814Z,1.90
2022-10-08T15:21:43.335Z,2.10
2022-10-08T15:24:11.742Z,2.03
2022-10-08T15:26:39.906Z,2.70
2022-10-08T15:29:12.346Z,3.87
2022-10-08T15:31:44.594Z,2.87
2022-10-08T15:34:16.543Z,2.50
2022-10-08T15:36:46.338Z,2.13
2022-10-08T15:39:15.214Z,2.90
2022-10-08T15:41:44.275Z,3.60
2022-10-08T15:44:15.612Z,2.40
2022-10-08T15:46:43.758Z,2.80
2022-10-08T15:49:12.899Z,2.10
2022-10-08T15:51:41.635Z,2.63
2022-10-08T15:54:11.225Z,2.20
2022-10-08T15:56:39.690Z,1.70
2022-10-08T15:59:07.794Z,2.30
2022-10-08T16:01:38.983Z,2.10
2022-10-08T16:04:08.006Z,2.20
2022-10-08T16:06:36.879Z,2.20
2022-10-08T16:09:05.149Z,2.33
2022-10-08T16:11:35.343Z,2.30
2022-10-08T16:14:04.026Z,1.70
2022-10-08T16:16:32.241Z,2.17
2022-10-08T16:19:01.352Z,2.10
2022-10-08T16:21:30.225Z,2.37
2022-10-08T16:23:58.364Z,2.87
2022-10-08T16:26:26.617Z,4.13
2022-10-08T16:28:57.847Z,3.30
2022-10-08T16:31:26.269Z,3.07
2022-10-08T16:33:56.064Z,3.40
2022-10-08T16:36:24.193Z,3.17
2022-10-08T16:38:52.273Z,2.97
2022-10-08T16:41:21.214Z,2.60
2022-10-08T16:43:50.229Z,2.80
2022-10-08T16:46:20.893Z,2.60
2022-10-08T16:48:52.355Z,3.10
2022-10-08T16:51:20.479Z,2.73
2022-10-08T16:53:49.323Z,3.00
2022-10-08T16:56:17.439Z,2.53
2022-10-08T16:58:45.750Z,2.83
2022-10-08T17:01:13.882Z,2.63
2022-10-08T17:03:43.392Z,2.77
2022-10-08T17:06:11.792Z,2.30
2022-10-08T17:08:39.966Z,2.10
2022-10-08T17:11:08.797Z,2.23
2022-10-08T17:13:41.052Z,2.37
2022-10-08T17:16:09.254Z,2.47
2022-10-08T17:18:37.413Z,2.60
2022-10-08T17:21:07.364Z,3.50
2022-10-08T17:23:38.107Z,1.83
2022-10-08T17:26:07.741Z,2.20
2022-10-08T17:28:36.746Z,2.70
2022-10-08T17:31:05.710Z,3.93
2022-10-08T17:33:35.940Z,3.10
2022-10-08T17:36:07.177Z,2.50
2022-10-08T17:38:35.420Z,2.00
2022-10-08T17:41:12.169Z,2.77
2022-10-08T17:43:40.234Z,2.03
2022-10-08T17:46:09.803Z,1.90
2022-10-08T17:48:37.877Z,2.47
2022-10-08T17:51:08.024Z,1.97
2022-10-08T17:53:36.168Z,2.73
2022-10-08T17:56:05.295Z,2.73
2022-10-08T17:58:33.576Z,4.13
2022-10-08T18:01:07.065Z,3.10
2022-10-08T18:03:35.353Z,2.63
2022-10-08T18:06:03.736Z,2.23
2022-10-08T18:08:33.244Z,2.80
2022-10-08T18:11:02.876Z,3.33
2022-10-08T18:13:30.949Z,2.80
2022-10-08T18:16:03.221Z,2.70
2022-10-08T18:18:31.461Z,3.00
2022-10-08T18:21:00.442Z,2.50
2022-10-08T18:23:29.294Z,3.00
2022-10-08T18:26:07.676Z,3.33
2022-10-08T18:28:36.033Z,4.17
2022-10-08T18:31:13.451Z,4.90
2022-10-08T18:33:43.791Z,5.43
2022-10-08T18:36:12.759Z,7.80
2022-10-08T18:38:40.977Z,6.87
2022-10-08T18:41:17.455Z,6.67
2022-10-08T18:43:46.051Z,7.17
2022-10-08T18:46:14.459Z,6.87
2022-10-08T18:48:42.710Z,5.97
2022-10-08T18:51:11.664Z,5.23
2022-10-08T18:53:40.860Z,6.23
2022-10-08T18:56:09.754Z,4.73
2022-10-08T18:58:39.241Z,4.90
2022-10-08T19:01:07.623Z,5.80
2022-10-08T19:03:36.032Z,5.17
2022-10-08T19:06:07.372Z,4.87
2022-10-08T19:08:35.547Z,4.30
2022-10-08T19:11:10.365Z,4.57
2022-10-08T19:13:40.007Z,4.63
2022-10-08T19:16:13.354Z,4.70
2022-10-08T19:18:43.075Z,4.27
2022-10-08T19:21:11.436Z,4.03
2022-10-08T19:23:39.576Z,3.93
2022-10-08T19:26:08.046Z,3.97
2022-10-08T19:28:37.418Z,3.47
2022-10-08T19:31:14.718Z,3.63
2022-10-08T19:33:43.030Z,3.37
2022-10-08T19:36:11.351Z,3.70
2022-10-08T19:38:39.474Z,4.17
2022-10-08T19:41:08.153Z,3.70
2022-10-08T19:43:36.547Z,3.80
2022-10-08T19:46:04.887Z,2.93
2022-10-08T19:48:34.758Z,3.00
2022-10-08T19:51:05.116Z,3.03
2022-10-08T19:53:33.312Z,2.93
2022-10-08T19:56:01.675Z,3.13
2022-10-08T19:58:30.070Z,2.80
2022-10-08T20:01:01.417Z,3.70
2022-10-08T20:03:29.624Z,3.37
2022-10-08T20:06:02.256Z,4.07
2022-10-08T20:08:30.527Z,3.87
2022-10-08T20:10:59.478Z,3.77
2022-10-08T20:13:27.873Z,3.63
2022-10-08T20:15:56.063Z,4.93
2022-10-08T20:18:24.219Z,4.90
2022-10-08T20:21:02.777Z,4.67
2022-10-08T20:23:30.978Z,4.60
2022-10-08T20:26:09.624Z,5.20
2022-10-08T20:28:37.768Z,4.40
2022-10-08T20:31:10.734Z,4.83
2022-10-08T20:33:40.698Z,4.60
2022-10-08T20:36:10.457Z,3.93
2022-10-08T20:38:38.659Z,4.37
2022-10-08T20:41:07.314Z,3.60
2022-10-08T20:43:36.063Z,3.73
2022-10-08T20:46:04.543Z,3.60
2022-10-08T20:48:33.273Z,3.30
2022-10-08T20:51:04.840Z,3.73
2022-10-08T20:53:34.597Z,3.10
2022-10-08T20:56:05.769Z,3.40
2022-10-08T20:58:33.904Z,3.40
2022-10-08T21:01:06.231Z,3.30
2022-10-08T21:03:36.154Z,3.37
2022-10-08T21:06:04.560Z,3.87
2022-10-08T21:08:36.567Z,4.20
2022-10-08T21:11:04.866Z,5.60
2022-10-08T21:13:33.077Z,6.57
2022-10-08T21:16:02.366Z,6.70
2022-10-08T21:18:30.662Z,6.03
2022-10-08T21:21:02.578Z,5.47
2022-10-08T21:23:30.782Z,5.10
2022-10-08T21:26:08.784Z,5.70
2022-10-08T21:28:37.100Z,5.60
2022-10-08T21:31:05.522Z,4.90
2022-10-08T21:33:36.029Z,4.47
2022-10-08T21:36:04.833Z,5.07
2022-10-08T21:38:32.928Z,4.83
2022-10-08T21:41:02.272Z,4.70
2022-10-08T21:43:32.182Z,4.27
2022-10-08T21:46:01.611Z,4.17
2022-10-08T21:48:30.606Z,3.70
2022-10-08T21:50:59.633Z,3.17
2022-10-08T21:53:27.800Z,4.17
2022-10-08T21:55:56.886Z,3.37
2022-10-08T21:58:25.596Z,3.80
2022-10-08T22:00:55.218Z,3.80
2022-10-08T22:03:23.654Z,3.97
2022-10-08T22:05:52.918Z,3.47
2022-10-08T22:08:21.073Z,3.30
2022-10-08T22:10:49.148Z,3.43
2022-10-08T22:13:17.349Z,3.53
2022-10-08T22:15:54.813Z,4.10
2022-10-08T22:18:22.982Z,4.50
2022-10-08T22:20:51.302Z,4.77
2022-10-08T22:23:19.526Z,4.77
2022-10-08T22:25:53.336Z,4.67
2022-10-08T22:28:21.719Z,5.37
2022-10-08T22:30:50.310Z,5.03
2022-10-08T22:33:20.030Z,4.87
2022-10-08T22:35:48.179Z,5.17
2022-10-08T22:38:16.430Z,5.10
2022-10-08T22:40:45.113Z,5.00
2022-10-08T22:43:16.455Z,4.70
2022-10-08T22:45:45.300Z,4.90
2022-10-08T22:48:13.383Z,5.00
2022-10-08T22:50:42.875Z,4.83
2022-10-08T22:53:10.986Z,5.13
2022-10-08T22:55:41.158Z,5.03
2022-10-08T22:58:09.598Z,4.97
2022-10-08T23:00:37.676Z,5.10
2022-10-08T23:03:05.901Z,4.47
2022-10-08T23:05:34.075Z,5.27
2022-10-08T23:08:03.794Z,4.93
2022-10-08T23:10:31.938Z,4.30
2022-10-08T23:13:00.297Z,4.30
2022-10-08T23:15:28.373Z,4.83
2022-10-08T23:17:56.481Z,5.03
2022-10-08T23:20:24.644Z,4.27
2022-10-08T23:22:52.671Z,4.93
2022-10-08T23:25:22.436Z,4.53
2022-10-08T23:27:50.493Z,4.33
2022-10-08T23:30:41.495Z,4.23
2022-10-08T23:33:06.742Z,4.30
2022-10-08T23:35:34.823Z,4.30
2022-10-08T23:38:02.818Z,4.20
2022-10-08T23:40:32.613Z,4.80
2022-10-08T23:43:00.697Z,4.30
2022-10-08T23:45:28.720Z,4.10
2022-10-08T23:47:56.755Z,3.97
2022-10-08T23:50:24.802Z,4.50
2022-10-08T23:52:53.122Z,4.17
2022-10-08T23:55:21.165Z,4.57
2022-10-08T23:57:50.549Z,4.27
